createdAt,value
2023-04-16T00:00:54.977Z,35.15
2023-04-16T00:03:40.581Z,35.42
2023-04-16T00:06:26.325Z,35.15
2023-04-16T00:09:11.732Z,35.62
2023-04-16T00:11:56.967Z,35.44
2023-04-16T00:14:42.330Z,35.33
2023-04-16T00:17:27.673Z,34.98
2023-04-16T00:20:13.059Z,35.09
2023-04-16T00:22:58.613Z,34.98
2023-04-16T00:25:43.885Z,35.32
2023-04-16T00:28:29.298Z,34.90
2023-04-16T00:31:14.979Z,35.76
2023-04-16T00:33:59.993Z,35.34
2023-04-16T00:36:45.262Z,35.43
2023-04-16T00:39:30.854Z,35.20
2023-04-16T00:42:16.181Z,35.37
2023-04-16T00:45:01.596Z,35.13
2023-04-16T00:47:46.842Z,35.18
2023-04-16T00:50:32.321Z,35.43
2023-04-16T00:53:17.710Z,35.00
2023-04-16T00:56:03.161Z,35.24
2023-04-16T00:58:48.692Z,35.14
2023-04-16T01:01:34.108Z,35.59
2023-04-16T01:04:19.452Z,35.28
2023-04-16T01:07:04.669Z,35.21
2023-04-16T01:09:50.039Z,35.80
2023-04-16T01:12:35.613Z,35.42
2023-04-16T01:15:20.963Z,35.30
2023-04-16T01:18:06.537Z,35.34
2023-04-16T01:20:51.937Z,35.14
2023-04-16T01:23:37.380Z,35.63
2023-04-16T01:26:22.886Z,35.39
2023-04-16T01:29:08.422Z,35.42
2023-04-16T01:31:53.953Z,35.05
2023-04-16T01:34:39.105Z,35.11
2023-04-16T01:37:24.566Z,35.09
2023-04-16T01:40:09.961Z,35.65
2023-04-16T01:42:55.179Z,35.74
2023-04-16T01:45:40.060Z,35.25
2023-04-16T01:48:25.384Z,34.98
2023-04-16T01:51:11.038Z,35.44
2023-04-16T01:53:56.473Z,35.52
2023-04-16T01:56:41.884Z,35.36
2023-04-16T01:59:26.982Z,35.44
2023-04-16T02:02:12.403Z,35.19
2023-04-16T02:04:57.869Z,35.42
2023-04-16T02:07:43.257Z,35.21
2023-04-16T02:10:28.684Z,35.41
2023-04-16T02:13:14.048Z,35.39
2023-04-16T02:15:59.545Z,35.37
2023-04-16T02:18:44.937Z,34.86
2023-04-16T02:21:30.201Z,35.15
2023-04-16T02:24:15.591Z,35.43
2023-04-16T02:27:00.834Z,35.35
2023-04-16T02:29:46.269Z,35.41
2023-04-16T02:32:31.800Z,35.62
2023-04-16T02:35:17.066Z,35.26
2023-04-16T02:38:02.564Z,35.52
2023-04-16T02:40:47.895Z,35.37
2023-04-16T02:43:33.401Z,35.58
2023-04-16T02:46:18.992Z,35.59
2023-04-16T02:49:04.216Z,35.21
2023-04-16T02:51:49.677Z,35.48
2023-04-16T02:54:34.975Z,35.37
2023-04-16T02:57:20.460Z,35.25
2023-04-16T03:00:05.397Z,35.29
2023-04-16T03:02:50.982Z,35.08
2023-04-16T03:05:38.064Z,35.08
2023-04-16T03:08:27.945Z,35.42
2023-04-16T03:11:13.258Z,35.38
2023-04-16T03:13:58.730Z,35.78
2023-04-16T03:16:44.135Z,35.50
2023-04-16T03:19:29.626Z,35.32
2023-04-16T03:22:15.108Z,35.65
2023-04-16T03:25:00.248Z,35.56
2023-04-16T03:27:45.632Z,35.26
2023-04-16T03:30:30.897Z,35.53
2023-04-16T03:33:16.041Z,35.52
2023-04-16T03:36:01.460Z,35.75
2023-04-16T03:38:46.520Z,35.45
2023-04-16T03:41:32.041Z,35.20
2023-04-16T03:44:17.368Z,35.51
2023-04-16T03:47:02.714Z,35.10
2023-04-16T03:49:48.174Z,35.29
2023-04-16T03:52:33.526Z,35.38
2023-04-16T03:55:18.988Z,35.54
2023-04-16T03:58:04.333Z,35.47
2023-04-16T04:00:49.840Z,35.67
2023-04-16T04:03:35.428Z,35.05
2023-04-16T04:06:20.655Z,35.43
2023-04-16T04:09:05.694Z,35.43
2023-04-16T04:11:51.002Z,34.96
2023-04-16T04:14:36.229Z,35.20
2023-04-16T04:17:21.231Z,35.11
2023-04-16T04:20:06.720Z,34.73
2023-04-16T04:22:52.015Z,34.94
2023-04-16T04:25:37.425Z,35.50
2023-04-16T04:28:22.761Z,35.14
2023-04-16T04:31:07.796Z,34.46
2023-04-16T04:33:56.235Z,35.19
2023-04-16T04:36:41.426Z,35.20
2023-04-16T04:39:26.871Z,34.61
2023-04-16T04:42:12.259Z,34.21
2023-04-16T04:44:57.521Z,34.83
2023-04-16T04:47:42.421Z,34.70
2023-04-16T04:50:27.798Z,34.94
2023-04-16T04:53:13.117Z,34.97
2023-04-16T04:56:05.499Z,35.06
2023-04-16T04:58:57.411Z,34.66
2023-04-16T05:01:42.777Z,34.74
2023-04-16T05:04:28.130Z,34.67
2023-04-16T05:07:13.815Z,34.64
2023-04-16T05:09:59.046Z,34.90
2023-04-16T05:12:44.813Z,35.18
2023-04-16T05:15:29.930Z,35.37
2023-04-16T05:18:15.369Z,35.25
2023-04-16T05:21:00.797Z,35.39
2023-04-16T05:23:46.123Z,35.39
2023-04-16T05:26:31.468Z,35.34
2023-04-16T05:29:16.855Z,35.39
2023-04-16T05:32:02.377Z,35.38
2023-04-16T05:34:47.440Z,34.82
2023-04-16T05:37:32.785Z,35.55
2023-04-16T05:40:18.309Z,35.79
2023-04-16T05:43:03.590Z,36.38
2023-04-16T05:45:48.995Z,36.81
2023-04-16T05:48:34.326Z,36.48
2023-04-16T05:51:19.726Z,37.18
2023-04-16T05:54:04.879Z,36.77
2023-04-16T05:56:50.357Z,37.22
2023-04-16T05:59:35.241Z,37.07
2023-04-16T06:02:20.685Z,36.90
2023-04-16T06:05:05.951Z,37.54
2023-04-16T06:07:51.033Z,37.34
2023-04-16T06:10:36.401Z,37.73
2023-04-16T06:13:21.777Z,37.14
2023-04-16T06:16:07.098Z,37.20
2023-04-16T06:18:52.614Z,37.46
2023-04-16T06:21:37.994Z,38.11
2023-04-16T06:24:23.503Z,37.30
2023-04-16T06:27:08.856Z,37.41
2023-04-16T06:29:54.195Z,37.67
2023-04-16T06:32:41.538Z,37.55
2023-04-16T06:35:26.382Z,37.50
2023-04-16T06:38:11.742Z,37.47
2023-04-16T06:40:57.241Z,37.26
2023-04-16T06:43:42.519Z,37.24
2023-04-16T06:46:28.017Z,37.54
2023-04-16T06:49:13.263Z,37.19
2023-04-16T06:51:58.582Z,37.62
2023-04-16T06:54:43.905Z,37.05
2023-04-16T06:57:29.261Z,37.46
2023-04-16T07:00:14.667Z,37.88
2023-04-16T07:02:59.994Z,37.60
2023-04-16T07:05:45.201Z,37.33
2023-04-16T07:08:30.481Z,37.25
2023-04-16T07:11:15.680Z,37.13
2023-04-16T07:14:00.882Z,37.27
2023-04-16T07:16:46.202Z,37.16
2023-04-16T07:19:31.226Z,37.01
2023-04-16T07:22:16.688Z,37.73
2023-04-16T07:25:02.013Z,37.00
2023-04-16T07:27:47.264Z,37.09
2023-04-16T07:30:32.699Z,36.93
2023-04-16T07:33:18.173Z,37.20
2023-04-16T07:36:03.441Z,36.85
2023-04-16T07:38:48.777Z,37.34
2023-04-16T07:41:33.995Z,36.94
2023-04-16T07:44:19.439Z,37.51
2023-04-16T07:47:05.663Z,36.98
2023-04-16T07:49:50.840Z,37.22
2023-04-16T07:52:36.215Z,37.30
2023-04-16T07:55:21.536Z,37.84
2023-04-16T07:58:06.890Z,37.02
2023-04-16T08:00:52.178Z,37.02
2023-04-16T08:03:37.915Z,36.97
2023-04-16T08:06:23.543Z,37.05
2023-04-16T08:09:09.184Z,37.03
2023-04-16T08:11:54.717Z,36.76
2023-04-16T08:14:39.748Z,36.97
2023-04-16T08:17:25.209Z,37.07
2023-04-16T08:20:12.200Z,36.46
2023-04-16T08:22:59.668Z,36.60
2023-04-16T08:25:45.004Z,36.68
2023-04-16T08:28:30.264Z,36.54
2023-04-16T08:31:15.261Z,36.98
2023-04-16T08:34:00.728Z,36.67
2023-04-16T08:36:45.922Z,36.48
2023-04-16T08:39:31.335Z,36.50
2023-04-16T08:42:16.366Z,36.65
2023-04-16T08:45:01.580Z,36.52
2023-04-16T08:47:46.980Z,36.33
2023-04-16T08:50:32.281Z,36.11
2023-04-16T08:53:17.259Z,36.58
2023-04-16T08:56:02.554Z,36.72
2023-04-16T08:58:47.870Z,36.74
2023-04-16T09:01:33.213Z,36.83
2023-04-16T09:04:18.508Z,39.31
2023-04-16T09:07:03.827Z,38.03
2023-04-16T09:09:49.178Z,39.83
2023-04-16T09:12:34.431Z,39.87
2023-04-16T09:15:19.768Z,40.12
2023-04-16T09:18:05.136Z,39.92
2023-04-16T09:20:53.252Z,39.53
2023-04-16T09:23:38.600Z,39.74
2023-04-16T09:26:24.052Z,40.19
2023-04-16T09:29:09.779Z,39.89
2023-04-16T09:31:55.156Z,40.26
2023-04-16T09:34:40.512Z,39.69
2023-04-16T09:37:25.691Z,40.37
2023-04-16T09:40:11.047Z,40.09
2023-04-16T09:42:56.222Z,40.05
2023-04-16T09:45:41.571Z,40.00
2023-04-16T09:48:27.153Z,40.06
2023-04-16T09:51:15.581Z,39.93
2023-04-16T09:54:01.880Z,39.57
2023-04-16T09:56:47.520Z,39.43
2023-04-16T09:59:32.711Z,39.82
2023-04-16T10:02:18.214Z,39.75
2023-04-16T10:05:03.436Z,39.43
2023-04-16T10:07:48.849Z,39.56
2023-04-16T10:10:34.305Z,39.31
2023-04-16T10:13:19.703Z,39.33
2023-04-16T10:16:05.129Z,39.54
2023-04-16T10:18:50.251Z,39.81
2023-04-16T10:21:35.584Z,40.69
2023-04-16T10:24:20.612Z,41.02
2023-04-16T10:27:05.799Z,40.86
2023-04-16T10:29:51.295Z,40.78
2023-04-16T10:32:36.552Z,40.42
2023-04-16T10:35:21.904Z,40.24
2023-04-16T10:38:07.220Z,39.44
2023-04-16T10:40:52.299Z,39.65
2023-04-16T10:43:37.706Z,39.37
2023-04-16T10:46:23.161Z,39.13
2023-04-16T10:49:08.620Z,39.05
2023-04-16T10:51:53.787Z,38.89
2023-04-16T10:54:38.955Z,38.21
2023-04-16T10:57:24.034Z,38.62
2023-04-16T11:00:09.305Z,38.11
2023-04-16T11:02:54.996Z,38.63
2023-04-16T11:05:40.129Z,38.73
2023-04-16T11:08:26.399Z,38.22
2023-04-16T11:11:11.351Z,37.57
2023-04-16T11:13:56.858Z,38.29
2023-04-16T11:16:42.244Z,37.77
2023-04-16T11:19:27.399Z,38.01
2023-04-16T11:22:12.987Z,37.64
2023-04-16T11:24:58.318Z,37.49
2023-04-16T11:27:43.766Z,37.77
2023-04-16T11:30:29.034Z,37.20
2023-04-16T11:33:14.581Z,37.91
2023-04-16T11:35:59.958Z,37.33
2023-04-16T11:38:45.089Z,37.13
2023-04-16T11:41:30.363Z,37.89
2023-04-16T11:44:15.725Z,37.50
2023-04-16T11:47:01.408Z,37.66
2023-04-16T11:49:46.764Z,37.48
2023-04-16T11:52:32.152Z,37.78
2023-04-16T11:55:17.625Z,37.44
2023-04-16T11:58:02.921Z,37.22
2023-04-16T12:00:48.328Z,37.14
2023-04-16T12:03:34.050Z,37.91
2023-04-16T12:06:19.636Z,37.96
2023-04-16T12:09:04.989Z,38.11
2023-04-16T12:11:50.290Z,38.34
2023-04-16T12:14:35.851Z,37.98
2023-04-16T12:17:21.148Z,38.06
2023-04-16T12:20:06.625Z,37.86
2023-04-16T12:22:51.978Z,37.17
2023-04-16T12:25:37.317Z,38.44
2023-04-16T12:28:22.584Z,38.51
2023-04-16T12:31:08.170Z,38.73
2023-04-16T12:33:53.459Z,39.10
2023-04-16T12:36:38.706Z,39.80
2023-04-16T12:39:23.884Z,39.65
2023-04-16T12:42:09.301Z,40.45
2023-04-16T12:44:54.704Z,40.49
2023-04-16T12:47:40.033Z,39.84
2023-04-16T12:50:25.308Z,39.34
2023-04-16T12:53:10.783Z,38.14
2023-04-16T12:55:56.124Z,37.66
2023-04-16T12:58:41.478Z,37.11
2023-04-16T13:01:26.967Z,36.97
2023-04-16T13:04:12.428Z,36.82
2023-04-16T13:06:57.648Z,36.87
2023-04-16T13:09:43.029Z,36.28
2023-04-16T13:12:28.291Z,36.95
2023-04-16T13:15:13.819Z,36.69
2023-04-16T13:17:59.105Z,37.20
2023-04-16T13:20:44.574Z,37.26
2023-04-16T13:23:29.790Z,38.12
2023-04-16T13:26:15.125Z,38.27
2023-04-16T13:29:00.644Z,37.79
2023-04-16T13:31:46.167Z,38.38
2023-04-16T13:34:31.377Z,38.32
2023-04-16T13:37:16.738Z,38.23
2023-04-16T13:40:02.594Z,38.04
2023-04-16T13:42:47.862Z,38.34
2023-04-16T13:45:33.427Z,38.28
2023-04-16T13:48:18.988Z,38.22
2023-04-16T13:51:04.338Z,38.00
2023-04-16T13:53:50.228Z,38.44
2023-04-16T13:56:35.999Z,38.48
2023-04-16T13:59:21.361Z,37.71
2023-04-16T14:02:06.981Z,37.96
2023-04-16T14:04:52.153Z,38.12
2023-04-16T14:07:39.837Z,37.84
2023-04-16T14:10:26.098Z,37.98
2023-04-16T14:13:12.487Z,37.92
2023-04-16T14:15:59.684Z,38.01
2023-04-16T14:18:45.243Z,37.93
2023-04-16T14:21:32.752Z,37.55
2023-04-16T14:24:17.947Z,37.55
2023-04-16T14:27:03.493Z,38.00
2023-04-16T14:29:48.856Z,37.90
2023-04-16T14:32:34.394Z,37.85
2023-04-16T14:35:20.112Z,37.89
2023-04-16T14:38:07.488Z,37.65
2023-04-16T14:40:52.929Z,37.75
2023-04-16T14:43:40.452Z,37.73
2023-04-16T14:46:26.704Z,37.29
2023-04-16T14:49:12.533Z,37.19
2023-04-16T14:51:57.977Z,37.74
2023-04-16T14:54:43.583Z,37.66
2023-04-16T14:57:30.669Z,37.47
2023-04-16T15:00:19.505Z,37.61
2023-04-16T15:03:05.313Z,38.19
2023-04-16T15:05:51.012Z,37.47
2023-04-16T15:08:36.307Z,37.42
2023-04-16T15:11:21.518Z,37.16
2023-04-16T15:14:06.861Z,37.24
2023-04-16T15:16:52.187Z,37.22
2023-04-16T15:19:37.494Z,37.64
2023-04-16T15:22:23.126Z,37.26
2023-04-16T15:25:08.899Z,37.20
2023-04-16T15:27:54.198Z,37.17
2023-04-16T15:30:39.872Z,37.53
2023-04-16T15:33:25.012Z,36.82
2023-04-16T15:36:10.571Z,37.12
2023-04-16T15:38:55.733Z,37.08
2023-04-16T15:41:59.944Z,37.40
2023-04-16T15:44:46.982Z,37.32
2023-04-16T15:47:32.375Z,37.43
2023-04-16T15:50:17.430Z,37.22
2023-04-16T15:53:03.043Z,37.12
2023-04-16T15:55:48.743Z,36.88
2023-04-16T15:58:34.927Z,37.61
2023-04-16T16:01:20.511Z,37.10
2023-04-16T16:04:05.722Z,37.05
2023-04-16T16:06:50.866Z,37.09
2023-04-16T16:09:36.466Z,37.20
2023-04-16T16:12:24.594Z,37.60
2023-04-16T16:15:09.731Z,37.40
2023-04-16T16:17:55.172Z,36.95
2023-04-16T16:20:40.734Z,37.11
2023-04-16T16:23:26.266Z,36.98
2023-04-16T16:26:11.284Z,37.29
2023-04-16T16:28:56.768Z,37.37
2023-04-16T16:31:42.207Z,37.04
2023-04-16T16:34:27.679Z,37.27
2023-04-16T16:37:12.954Z,37.01
2023-04-16T16:39:58.470Z,37.34
2023-04-16T16:42:43.858Z,36.90
2023-04-16T16:45:29.158Z,36.63
2023-04-16T16:48:14.524Z,36.55
2023-04-16T16:50:59.854Z,36.20
2023-04-16T16:53:45.153Z,36.12
2023-04-16T16:56:30.427Z,36.54
2023-04-16T16:59:15.913Z,36.68
2023-04-16T17:02:01.477Z,37.24
2023-04-16T17:04:46.384Z,38.72
2023-04-16T17:07:31.824Z,38.64
2023-04-16T17:10:17.114Z,39.25
2023-04-16T17:13:02.538Z,38.31
2023-04-16T17:15:48.009Z,38.67
2023-04-16T17:18:33.307Z,39.26
2023-04-16T17:21:18.623Z,39.32
2023-04-16T17:24:03.805Z,38.77
2023-04-16T17:26:49.101Z,38.26
2023-04-16T17:29:36.212Z,38.89
2023-04-16T17:32:21.878Z,39.40
2023-04-16T17:35:07.706Z,39.65
2023-04-16T17:37:53.528Z,39.97
2023-04-16T17:40:38.765Z,39.02
2023-04-16T17:43:24.222Z,39.15
2023-04-16T17:46:09.214Z,39.20
2023-04-16T17:48:54.550Z,38.83
2023-04-16T17:51:39.830Z,38.87
2023-04-16T17:54:25.295Z,38.42
2023-04-16T17:57:10.675Z,38.25
2023-04-16T17:59:56.022Z,38.65
2023-04-16T18:02:41.451Z,38.04
2023-04-16T18:05:26.678Z,38.04
2023-04-16T18:08:11.975Z,37.74
2023-04-16T18:10:57.350Z,37.74
2023-04-16T18:13:42.912Z,37.77
2023-04-16T18:16:28.367Z,37.12
2023-04-16T18:19:13.725Z,37.34
2023-04-16T18:21:59.275Z,37.47
2023-04-16T18:24:44.582Z,37.80
2023-04-16T18:27:30.039Z,37.52
2023-04-16T18:30:22.098Z,37.80
2023-04-16T18:33:43.543Z,37.61
2023-04-16T18:36:15.510Z,37.38
2023-04-16T18:39:02.114Z,37.31
2023-04-16T18:41:49.088Z,37.54
2023-04-16T18:44:34.418Z,37.49
2023-04-16T18:47:19.809Z,37.39
2023-04-16T18:50:05.142Z,37.11
2023-04-16T18:52:50.585Z,37.27
2023-04-16T18:55:35.780Z,37.43
2023-04-16T18:58:21.117Z,37.13
2023-04-16T19:01:06.280Z,37.00
2023-04-16T19:03:51.511Z,37.45
2023-04-16T19:06:36.725Z,36.60
2023-04-16T19:09:22.073Z,37.65
2023-04-16T19:12:07.243Z,37.28
2023-04-16T19:14:52.625Z,37.05
2023-04-16T19:17:38.037Z,36.96
2023-04-16T19:20:23.476Z,36.72
2023-04-16T19:23:08.892Z,37.76
2023-04-16T19:25:54.266Z,37.19
2023-04-16T19:28:40.061Z,37.27
2023-04-16T19:31:25.369Z,37.10
2023-04-16T19:34:10.883Z,37.76
2023-04-16T19:36:56.231Z,38.30
2023-04-16T19:39:41.611Z,38.70
2023-04-16T19:42:26.830Z,38.42
2023-04-16T19:45:11.946Z,38.31
2023-04-16T19:47:57.134Z,38.03
2023-04-16T19:50:42.166Z,38.38
2023-04-16T19:53:27.473Z,38.10
2023-04-16T19:56:12.975Z,38.38
2023-04-16T19:58:58.418Z,38.35
2023-04-16T20:01:44.088Z,38.14
2023-04-16T20:04:29.483Z,38.34
2023-04-16T20:07:14.826Z,38.06
2023-04-16T20:10:00.353Z,38.25
2023-04-16T20:12:45.859Z,38.13
2023-04-16T20:15:31.353Z,38.03
2023-04-16T20:18:16.673Z,38.53
2023-04-16T20:21:02.192Z,38.14
2023-04-16T20:23:47.575Z,37.84
2023-04-16T20:26:32.899Z,38.07
2023-04-16T20:29:18.398Z,38.06
2023-04-16T20:32:03.759Z,38.35
2023-04-16T20:34:49.216Z,38.51
2023-04-16T20:37:34.594Z,38.37
2023-04-16T20:40:20.043Z,38.29
2023-04-16T20:43:05.468Z,38.04
2023-04-16T20:45:50.972Z,38.11
2023-04-16T20:48:36.326Z,38.14
2023-04-16T20:51:21.700Z,38.11
2023-04-16T20:54:07.270Z,38.42
2023-04-16T20:56:52.634Z,38.06
2023-04-16T20:59:38.003Z,38.57
2023-04-16T21:02:23.442Z,38.55
2023-04-16T21:05:08.494Z,39.64
2023-04-16T21:07:55.767Z,39.63
2023-04-16T21:10:41.239Z,39.69
2023-04-16T21:13:26.449Z,39.62
2023-04-16T21:16:12.092Z,39.69
2023-04-16T21:18:57.342Z,40.17
2023-04-16T21:21:42.851Z,40.95
2023-04-16T21:24:28.325Z,40.07
2023-04-16T21:27:13.635Z,39.72
2023-04-16T21:29:59.132Z,40.81
2023-04-16T21:32:44.297Z,39.76
2023-04-16T21:35:29.440Z,39.75
2023-04-16T21:38:14.725Z,39.71
2023-04-16T21:41:00.122Z,39.77
2023-04-16T21:43:45.508Z,40.26
2023-04-16T21:46:30.697Z,40.06
2023-04-16T21:49:16.205Z,40.04
2023-04-16T21:52:01.571Z,39.64
2023-04-16T21:54:46.863Z,39.57
2023-04-16T21:57:32.110Z,39.60
2023-04-16T22:00:17.593Z,39.97
2023-04-16T22:03:03.160Z,40.08
2023-04-16T22:05:48.410Z,40.15
2023-04-16T22:08:33.760Z,40.37
2023-04-16T22:11:18.899Z,40.19
2023-04-16T22:14:04.123Z,40.14
2023-04-16T22:16:49.470Z,39.95
2023-04-16T22:19:34.907Z,39.59
2023-04-16T22:22:22.529Z,39.72
2023-04-16T22:25:07.513Z,40.16
2023-04-16T22:27:52.956Z,39.67
2023-04-16T22:30:38.360Z,39.94
2023-04-16T22:33:23.627Z,40.45
2023-04-16T22:36:09.212Z,39.47
2023-04-16T22:38:54.485Z,39.78
2023-04-16T22:41:39.902Z,39.71
2023-04-16T22:44:25.288Z,40.39
2023-04-16T22:47:10.812Z,39.87
2023-04-16T22:49:56.182Z,39.58
2023-04-16T22:52:41.248Z,40.14
2023-04-16T22:55:26.618Z,40.08
2023-04-16T22:58:11.963Z,40.04
2023-04-16T23:00:57.311Z,40.19
2023-04-16T23:03:43.041Z,40.01
2023-04-16T23:06:28.187Z,39.87
2023-04-16T23:09:13.839Z,40.11
2023-04-16T23:11:59.276Z,39.91
2023-04-16T23:14:44.721Z,39.63
2023-04-16T23:17:30.086Z,40.32
2023-04-16T23:20:15.288Z,40.11
2023-04-16T23:23:00.789Z,39.81
2023-04-16T23:25:46.087Z,39.70
2023-04-16T23:28:31.656Z,39.72
2023-04-16T23:31:17.100Z,39.58
2023-04-16T23:34:02.446Z,39.51
2023-04-16T23:36:47.849Z,39.59
2023-04-16T23:39:33.076Z,39.40
2023-04-16T23:42:18.476Z,39.31
2023-04-16T23:45:03.910Z,39.16
2023-04-16T23:47:49.314Z,39.52
2023-04-16T23:50:34.774Z,39.49
2023-04-16T23:53:20.258Z,39.40
2023-04-16T23:56:05.621Z,39.07
2023-04-16T23:58:50.852Z,38.80
